Weather reports worldwide

Advertisment
Monte Cimone, Italy (16134): temperature & dewpoint: 11.10.2018 08:00:00 - 17.10.2018 08:00:00 (CEST)Monte Cimone, Italy (16134): wind speed: 11.10.2018 08:00:00 - 17.10.2018 08:00:00 (CEST)Monte Cimone, Italy (16134): wind direction: 11.10.2018 08:00:00 - 17.10.2018 08:00:00 (CEST)Monte Cimone, Italy (16134): visibility: 11.10.2018 08:00:00 - 17.10.2018 08:00:00 (CEST)Monte Cimone, Italy (16134): sunshine duration: 11.10.2018 08:00:00 - 17.10.2018 08:00:00 (CEST)
Date & Time tt [°C] td [°C] ff [km/h] ff [kn] dd vv [km] sd [min]
17.10.2018 08:00:00 6,0 5,0 18 10 SE - 0
17.10.2018 07:00:00 6,2 5,2 24 13 SE - -
17.10.2018 06:00:00 6,0 5,0 22 12 SE - -
17.10.2018 05:00:00 6,0 5,0 22 12 E - -
17.10.2018 04:00:00 6,0 5,0 22 12 ESE - -
17.10.2018 03:00:00 6,0 5,0 21 11 E - -
17.10.2018 02:00:00 6,2 5,3 24 13 ESE - -
17.10.2018 01:00:00 6,0 5,1 24 13 ESE - -
17.10.2018 00:00:00 6,2 5,3 31 17 E - -
16.10.2018 23:00:00 6,2 5,3 41 22 E - -
16.10.2018 22:00:00 6,4 5,5 29 16 E - -
16.10.2018 21:00:00 6,4 5,5 29 16 E - -
16.10.2018 20:00:00 6,2 5,3 34 18 E - -
16.10.2018 19:00:00 6,0 5,1 31 17 E - 0
16.10.2018 18:00:00 6,2 5,3 29 16 E - 0
16.10.2018 17:00:00 6,2 5,3 22 12 E - 0
16.10.2018 16:00:00 6,4 5,5 24 13 E - 0
16.10.2018 15:00:00 6,4 5,5 24 13 E - 0
16.10.2018 14:00:00 6,2 5,5 22 12 E - 0
16.10.2018 13:00:00 6,0 5,2 34 18 E - 0
16.10.2018 12:00:00 6,0 5,2 34 18 E - 0
16.10.2018 11:00:00 5,8 5,1 31 17 E - 0
16.10.2018 10:00:00 5,8 5,2 29 16 E - 0
16.10.2018 09:00:00 5,6 5,0 29 16 E - 0
16.10.2018 08:00:00 5,0 4,6 24 13 E - -
16.10.2018 07:00:00 6,2 5,3 16 9 SE 20 -
16.10.2018 06:00:00 6,2 3,2 13 7 S 20 -
16.10.2018 05:00:00 5,2 4,0 13 7 SSE 1,2 -
16.10.2018 04:00:00 5,0 4,1 15 8 SSE 1,2 -
16.10.2018 03:00:00 6,0 0,4 13 7 S 15 -
16.10.2018 02:00:00 5,4 1,5 26 14 SSE 15 -
16.10.2018 01:00:00 5,6 -2,5 24 13 SSE 15 -
16.10.2018 00:00:00 4,4 4,1 18 10 SE 0,1 -
15.10.2018 23:00:00 4,8 3,3 15 8 ESE 0,1 -
15.10.2018 22:00:00 4,4 3,8 16 9 E 1,2 -
15.10.2018 21:00:00 5,8 3,0 21 11 E 15 -
15.10.2018 20:00:00 6,4 -2,2 13 7 E 20 -
15.10.2018 19:00:00 7,0 -1,7 9 5 NNE 20 -
15.10.2018 18:00:00 7,0 3,1 13 7 SSE 20 0
15.10.2018 17:00:00 8,0 4,0 8 4 SSE 3,0 12
15.10.2018 16:00:00 8,0 3,8 5 3 SSE 3,0 18
15.10.2018 15:00:00 8,0 3,8 0 0 N 20 24
15.10.2018 14:00:00 8,0 2,5 9 5 S 20 54
15.10.2018 13:00:00 8,0 2,9 15 8 SSE 20 54
15.10.2018 12:00:00 7,2 2,3 22 12 ESE 20 60
15.10.2018 11:00:00 6,8 2,5 26 14 ESE 20 60
15.10.2018 10:00:00 6,0 1,7 22 12 ESE 20 60
15.10.2018 09:00:00 5,0 0,4 24 13 SE 20 54
15.10.2018 08:00:00 5,0 0,8 26 14 SE 20 0
15.10.2018 07:00:00 5,0 1,8 21 11 SE 20 -
15.10.2018 06:00:00 5,4 3,6 21 11 SE 20 -
15.10.2018 05:00:00 5,4 3,1 21 11 SSE 20 -
15.10.2018 04:00:00 5,8 2,3 16 9 S 20 -
15.10.2018 03:00:00 6,0 2,1 16 9 SE 20 -
15.10.2018 02:00:00 5,8 3,5 11 6 SE 20 -
15.10.2018 01:00:00 5,4 3,9 13 7 SE - -
15.10.2018 00:00:00 5,0 5,0 16 9 ESE - -
14.10.2018 23:00:00 5,6 3,9 15 8 E 20 -
14.10.2018 22:00:00 5,6 3,4 16 9 E 30 -
14.10.2018 21:00:00 6,0 3,0 21 11 E 20 -
14.10.2018 20:00:00 5,8 5,8 16 9 E - -
14.10.2018 19:00:00 6,2 5,9 15 8 E - 0
14.10.2018 18:00:00 6,4 5,7 11 6 E - 0
14.10.2018 17:00:00 7,2 6,6 13 7 ESE - 0
14.10.2018 16:00:00 7,6 5,7 8 4 SSE 0,8 48
14.10.2018 15:00:00 8,8 4,8 18 10 SE 30 48
14.10.2018 14:00:00 8,2 2,9 21 11 SE 30 60
14.10.2018 13:00:00 7,4 1,7 28 15 ESE 30 60
14.10.2018 12:00:00 7,0 2,1 26 14 ESE 30 60
14.10.2018 11:00:00 7,2 1,7 18 10 ESE 30 60
14.10.2018 10:00:00 7,2 1,5 16 9 SE 30 60
14.10.2018 09:00:00 6,4 0,7 21 11 ESE 40 60
14.10.2018 08:00:00 6,2 -3,4 9 5 E 50 -
14.10.2018 07:00:00 7,0 -3,8 11 6 E 50 -
14.10.2018 06:00:00 7,4 -4,0 11 6 NE 50 -
14.10.2018 05:00:00 7,6 -4,8 0 0 N 50 -
14.10.2018 04:00:00 7,6 -4,8 0 0 N 50 -
14.10.2018 03:00:00 7,8 -11,5 0 0 N 50 -
14.10.2018 02:00:00 7,8 -16,5 9 5 S 50 -
14.10.2018 01:00:00 7,8 -16,5 16 9 S 50 -
14.10.2018 00:00:00 8,0 -16,3 16 9 S 50 -
13.10.2018 23:00:00 8,0 -14,2 16 9 SSE 50 -
13.10.2018 22:00:00 8,0 -13,6 13 7 ESE 50 -
13.10.2018 21:00:00 7,4 -16,1 13 7 E 50 -
13.10.2018 20:00:00 7,8 -16,5 13 7 ENE 50 -
13.10.2018 19:00:00 8,0 -3,5 13 7 NE 50 18
13.10.2018 18:00:00 8,8 4,6 4 2 ENE 30 36
13.10.2018 17:00:00 9,6 5,8 8 4 SSW 30 48
13.10.2018 16:00:00 9,8 5,8 4 2 SSW 15 42
13.10.2018 15:00:00 10,4 3,9 8 4 ESE 30 60
13.10.2018 14:00:00 10,6 4,1 8 4 SE 30 60
13.10.2018 13:00:00 9,4 2,0 5 3 SSE 30 60
13.10.2018 12:00:00 7,8 2,5 16 9 ESE 30 60
13.10.2018 11:00:00 7,0 2,3 18 10 E 30 60
13.10.2018 10:00:00 6,2 0,3 24 13 E 30 60
13.10.2018 09:00:00 6,0 0,4 26 14 ENE 30 60
13.10.2018 08:00:00 5,8 0,2 29 16 E 20 0
13.10.2018 07:00:00 6,0 -0,5 34 18 ENE 20 -
13.10.2018 06:00:00 6,0 -3,1 34 18 ENE 30 -
13.10.2018 05:00:00 6,4 -2,2 31 17 NE 30 -
13.10.2018 04:00:00 6,4 -0,8 29 16 ENE 30 -
13.10.2018 03:00:00 6,4 -2,5 28 15 ENE 30 -
13.10.2018 02:00:00 6,4 -1,0 28 15 ENE 30 -
13.10.2018 01:00:00 6,2 -2,2 29 16 ENE 30 -
13.10.2018 00:00:00 6,6 -1,8 29 16 ENE 30 -
12.10.2018 23:00:00 6,8 -1,9 31 17 ENE 30 -
12.10.2018 22:00:00 6,8 -2,6 28 15 NE 30 -
12.10.2018 21:00:00 7,0 -2,2 22 12 ENE 30 -
12.10.2018 20:00:00 7,0 -1,9 21 11 NNE 20 -
12.10.2018 19:00:00 7,8 -1,2 21 11 NNE 20 0
12.10.2018 18:00:00 8,8 3,2 5 3 NNE 20 30
12.10.2018 17:00:00 9,4 1,1 5 3 E 20 60
12.10.2018 16:00:00 10,0 3,3 5 3 ESE 20 60
12.10.2018 15:00:00 9,8 2,7 13 7 E 20 60
12.10.2018 14:00:00 9,4 3,6 9 5 ESE 20 60
12.10.2018 13:00:00 8,0 5,1 11 6 E 15 42
12.10.2018 12:00:00 7,0 5,8 13 7 E 0,2 54
12.10.2018 11:00:00 6,2 4,0 21 11 E 2,0 60
12.10.2018 10:00:00 6,6 3,4 18 10 E 20 60
12.10.2018 09:00:00 6,2 5,5 16 9 E 10 18
12.10.2018 08:00:00 6,0 3,7 13 7 E 3,0 6
12.10.2018 07:00:00 5,8 3,8 15 8 ESE 3,0 -
12.10.2018 06:00:00 5,2 5,2 21 11 ESE - -
12.10.2018 05:00:00 5,2 4,9 16 9 E - -
12.10.2018 04:00:00 5,2 4,5 21 11 ESE - -
12.10.2018 03:00:00 5,4 4,7 34 18 ESE - -
12.10.2018 02:00:00 5,6 5,3 37 20 SE - -
12.10.2018 01:00:00 5,6 4,9 35 19 SSE 20 -
12.10.2018 00:00:00 5,6 4,1 39 21 SSE 20 -
11.10.2018 23:00:00 5,6 3,3 37 20 SSE 20 -
11.10.2018 22:00:00 6,0 3,5 31 17 S 20 -
11.10.2018 21:00:00 5,8 4,3 26 14 SSE 20 -
11.10.2018 20:00:00 5,6 4,1 37 20 SSE - -
11.10.2018 19:00:00 5,6 4,9 35 19 SSE - 0
11.10.2018 18:00:00 6,0 3,7 39 21 SSE - 0
11.10.2018 17:00:00 6,0 5,2 31 17 S - 0
11.10.2018 16:00:00 6,2 5,8 21 11 S - 0
11.10.2018 15:00:00 6,2 5,9 21 11 S - 0
11.10.2018 14:00:00 6,0 6,0 28 15 S - 0
11.10.2018 13:00:00 5,6 4,9 31 17 S 0,4 0
11.10.2018 12:00:00 5,6 5,0 41 22 S - 0
11.10.2018 11:00:00 5,6 5,6 39 21 S - 0
11.10.2018 10:00:00 5,4 5,4 42 23 S - 0
11.10.2018 09:00:00 5,0 4,1 54 29 S - 0
11.10.2018 08:00:00 5,0 3,3 63 34 S 2,0 0

tt = temperature
td = dewpoint
ff = wind speed
dd = wind direction
vv = visibility
sd = sunshine duration

Next stations